« 順光 成田国際空港 2019/5/25 sat | トップページ | 趣味的航空路誌改訂情報 2019/6/20 thu »

2019/06/19

定点 富山空港 2019/6/19 wed

昨晩は、緊急地震速報に驚かされ、お隣での地震。当地は小さな揺れを感じただけでした。

RJNT 182200Z VRB01KT 9999 FEW020 BKN070 20/17 Q1008

20190619_rjnt_00jg41850

昨夜は、小松や三沢から偵察に上がっていましたが、当地も朝に陸自へりが偵察に往来してました。

RJNT 182300Z VRB02KT 9999 SCT060 BKN070 21/16 Q1008

20190619_rjnt_01sea

海はもう夏・・ 海の家が建ってます。

20190619_rjnt_02ja88an

ANA313 RJTT-RJNT JA88AN B737-8AL

20190619_rjnt_03indigirka

INDIGIRKA 5VDQ8 TG

RJNT 190000Z VRB02KT 9999 FEW060 BKN070 22/16 Q1008

20190619_rjnt_04ja6502

JA6502 AS350B3 AKF

20190619_rjnt_05ja88an

20190619_rjnt_06ja88an

ANA316 RJNT-RJTT JA88AN B737-8AL

RJNT 190100Z 25004KT 230V290 9999 FEW030 SCT060 BKN070 22/16 Q1008

20190619_rjnt_07b6786

20190619_rjnt_08b6786

CSN613 ZYTL-RJNT B-6786 A320-232

20190619_rjnt_09ja82an

20190619_rjnt_10ja82an

ANA315 RJTT-RJNT JA82AN B737-881

20190619_rjnt_11ja82an

20190619_rjnt_12ja139t

JA139T AW139 富山県警察

RJNT 190200Z 30004KT 210V340 9999 FEW030 BKN060 BKN070 23/17 Q1007

20190619_rjnt_13ja03ap

JA03AP A109SP ASP

聞きなれたGN 昨日の地震関係かな

20190619_rjnt_14ja6502

JA6502 AS350B3 AKF

20190619_rjnt_15ja03ap

給油をしてすかさず出発

20190619_rjnt_16ja82an

20190619_rjnt_17ja82an

ANA1181 RJNT-RJCC JA82AN B737-881

20190619_rjnt_18ja82an

20190619_rjnt_19ja82an

20190619_rjnt_20ja03ap

JA03AP ANA機離陸の後、まだWT残ってそう

20190619_rjnt_21ja03ap

RW20 ローリングテイクオフで八尾へ帰投かな

20190619_rjnt_22b6786

20190619_rjnt_23b6786

CSN614 RJNT-ZYTL B-6786 A320-232

20190619_rjnt_24b6786

鮎釣客も少なめで、平穏な河原です。

|

« 順光 成田国際空港 2019/5/25 sat | トップページ | 趣味的航空路誌改訂情報 2019/6/20 thu »

富山空港」カテゴリの記事

コメント

コメントを書く



(ウェブ上には掲載しません)


コメントは記事投稿者が公開するまで表示されません。



« 順光 成田国際空港 2019/5/25 sat | トップページ | 趣味的航空路誌改訂情報 2019/6/20 thu »